createdAt,value
2023-01-13T00:02:01.117Z,2.39
2023-01-13T00:04:31.575Z,2.34
2023-01-13T00:07:01.885Z,2.30
2023-01-13T00:09:32.886Z,2.29
2023-01-13T00:12:03.113Z,2.32
2023-01-13T00:14:35.735Z,2.34
2023-01-13T00:17:06.371Z,2.34
2023-01-13T00:19:37.491Z,2.37
2023-01-13T00:22:07.807Z,2.39
2023-01-13T00:24:38.415Z,2.46
2023-01-13T00:27:08.891Z,2.57
2023-01-13T00:29:39.890Z,2.68
2023-01-13T00:32:10.333Z,2.75
2023-01-13T00:34:40.755Z,2.74
2023-01-13T00:37:13.039Z,2.68
2023-01-13T00:39:43.985Z,2.63
2023-01-13T00:42:47.098Z,2.63
2023-01-13T00:45:17.778Z,2.67
2023-01-13T00:47:48.729Z,2.67
2023-01-13T00:50:20.495Z,2.63
2023-01-13T00:52:51.884Z,2.58
2023-01-13T00:55:22.493Z,2.54
2023-01-13T00:57:53.025Z,2.55
2023-01-13T01:00:25.046Z,2.57
2023-01-13T01:02:55.884Z,2.61
2023-01-13T01:05:26.698Z,2.65
2023-01-13T01:07:57.992Z,2.67
2023-01-13T01:10:29.009Z,2.68
2023-01-13T01:12:59.255Z,2.67
2023-01-13T01:15:30.633Z,2.67
2023-01-13T01:18:00.822Z,2.67
2023-01-13T01:20:31.606Z,2.66
2023-01-13T01:23:01.885Z,2.65
2023-01-13T01:25:32.039Z,2.65
2023-01-13T01:28:02.920Z,2.66
2023-01-13T01:30:33.373Z,2.67
2023-01-13T01:33:05.101Z,2.66
2023-01-13T01:35:35.132Z,2.64
2023-01-13T01:38:05.392Z,2.61
2023-01-13T01:40:36.443Z,2.59
2023-01-13T01:43:27.795Z,2.58
2023-01-13T01:45:57.881Z,2.59
2023-01-13T01:48:28.891Z,2.61
2023-01-13T01:50:59.952Z,2.62
2023-01-13T01:53:31.983Z,2.60
2023-01-13T01:56:03.390Z,2.58
2023-01-13T01:58:38.524Z,2.59
2023-01-13T02:01:09.420Z,2.59
2023-01-13T02:03:42.829Z,2.54
2023-01-13T02:06:13.799Z,2.55
2023-01-13T02:08:43.105Z,2.59
2023-01-13T02:11:48.379Z,2.60
2023-01-13T02:14:19.247Z,2.63
2023-01-13T02:16:57.904Z,2.65
2023-01-13T02:20:19.240Z,2.64
2023-01-13T02:23:05.149Z,2.63
2023-01-13T02:25:49.221Z,2.62
2023-01-13T02:29:09.085Z,2.59
2023-01-13T02:31:42.602Z,2.58
2023-01-13T02:34:16.859Z,2.54
2023-01-13T02:36:52.759Z,2.54
2023-01-13T02:39:27.464Z,2.55
2023-01-13T02:42:19.966Z,2.57
2023-01-13T02:44:54.544Z,2.59
2023-01-13T02:47:26.817Z,2.61
2023-01-13T02:50:00.919Z,2.62
2023-01-13T02:52:35.421Z,2.62
2023-01-13T02:55:09.467Z,2.62
2023-01-13T02:57:39.963Z,2.63
2023-01-13T03:00:13.689Z,2.65
2023-01-13T03:02:44.236Z,2.62
2023-01-13T03:05:17.247Z,2.59
2023-01-13T03:08:21.719Z,2.61
2023-01-13T03:11:08.072Z,2.68
2023-01-13T03:14:01.551Z,2.76
2023-01-13T03:16:38.687Z,2.87
2023-01-13T03:19:16.046Z,2.91
2023-01-13T03:21:52.414Z,2.92
2023-01-13T03:24:27.211Z,2.95
2023-01-13T03:27:03.255Z,2.98
2023-01-13T03:29:37.668Z,3.01
2023-01-13T03:32:12.787Z,3.03
2023-01-13T03:34:47.403Z,3.04
2023-01-13T03:37:19.557Z,3.04
2023-01-13T03:39:53.334Z,3.03
2023-01-13T03:42:25.739Z,3.01
2023-01-13T03:44:59.845Z,3.00
2023-01-13T03:47:34.116Z,2.99
2023-01-13T03:50:06.218Z,2.99
2023-01-13T03:52:38.576Z,3.00
2023-01-13T03:55:12.763Z,2.97
2023-01-13T03:57:46.799Z,2.93
2023-01-13T04:00:18.539Z,2.89
2023-01-13T04:02:52.240Z,2.84
2023-01-13T04:05:25.434Z,2.79
2023-01-13T04:08:01.178Z,2.78
2023-01-13T04:10:33.636Z,2.73
2023-01-13T04:13:05.548Z,2.73
2023-01-13T04:15:38.984Z,2.74
2023-01-13T04:18:14.950Z,2.75
2023-01-13T04:20:48.130Z,2.74
2023-01-13T04:23:19.519Z,2.70
2023-01-13T04:25:50.915Z,2.68
2023-01-13T04:28:20.161Z,2.65
2023-01-13T04:30:50.595Z,2.60
2023-01-13T04:33:21.554Z,2.60
2023-01-13T04:35:53.096Z,2.58
2023-01-13T04:38:24.461Z,2.56
2023-01-13T04:40:54.796Z,2.54
2023-01-13T04:43:25.163Z,2.57
2023-01-13T04:45:55.465Z,2.61
2023-01-13T04:48:25.707Z,2.66
2023-01-13T04:50:56.586Z,2.71
2023-01-13T04:53:26.847Z,2.77
2023-01-13T04:55:57.195Z,2.79
2023-01-13T04:58:27.777Z,2.79
2023-01-13T05:00:58.987Z,2.76
2023-01-13T05:03:30.852Z,2.72
2023-01-13T05:06:01.324Z,2.69
2023-01-13T05:08:31.990Z,2.68
2023-01-13T05:11:24.078Z,2.67
2023-01-13T05:14:12.258Z,2.66
2023-01-13T05:17:00.385Z,2.60
2023-01-13T05:19:31.340Z,2.58
2023-01-13T05:22:20.099Z,2.59
2023-01-13T05:25:08.866Z,2.60
2023-01-13T05:27:39.187Z,2.51
2023-01-13T05:30:12.077Z,2.47
2023-01-13T05:32:42.909Z,2.51
2023-01-13T05:35:13.309Z,2.55
2023-01-13T05:37:43.956Z,2.62
2023-01-13T05:40:35.955Z,2.77
2023-01-13T05:43:24.270Z,2.97
2023-01-13T05:45:58.239Z,3.12
2023-01-13T05:48:29.821Z,3.23
2023-01-13T05:51:00.630Z,3.28
2023-01-13T05:53:31.624Z,3.29
2023-01-13T05:56:00.730Z,3.38
2023-01-13T05:58:31.020Z,3.50
2023-01-13T06:01:05.784Z,3.46
2023-01-13T06:03:36.366Z,3.45
2023-01-13T06:06:08.508Z,3.54
2023-01-13T06:08:39.955Z,3.62
2023-01-13T06:11:10.618Z,3.67
2023-01-13T06:13:40.944Z,3.77
2023-01-13T06:16:11.746Z,3.91
2023-01-13T06:18:42.613Z,4.07
2023-01-13T06:21:12.710Z,4.29
2023-01-13T06:23:43.036Z,4.53
2023-01-13T06:26:18.023Z,4.74
2023-01-13T06:28:50.406Z,4.95
2023-01-13T06:31:21.252Z,5.11
2023-01-13T06:33:53.359Z,5.32
2023-01-13T06:36:26.293Z,5.53
2023-01-13T06:38:58.691Z,5.64
2023-01-13T06:41:44.233Z,5.56
2023-01-13T06:44:14.794Z,5.31
2023-01-13T06:46:45.496Z,5.20
2023-01-13T06:49:15.780Z,5.16
2023-01-13T06:51:46.353Z,5.29
2023-01-13T06:54:16.535Z,5.43
2023-01-13T06:56:46.779Z,5.47
2023-01-13T06:59:16.862Z,5.47
2023-01-13T07:01:47.308Z,5.42
2023-01-13T07:04:18.609Z,5.39
2023-01-13T07:06:53.014Z,5.39
2023-01-13T07:09:23.770Z,5.35
2023-01-13T07:11:54.262Z,5.32
2023-01-13T07:14:42.181Z,5.29
2023-01-13T07:17:12.527Z,5.20
2023-01-13T07:19:43.270Z,5.10
2023-01-13T07:22:15.060Z,5.05
2023-01-13T07:24:46.097Z,4.96
2023-01-13T07:27:16.849Z,4.93
2023-01-13T07:29:47.152Z,4.91
2023-01-13T07:32:17.278Z,4.82
2023-01-13T07:34:47.728Z,4.75
2023-01-13T07:37:18.533Z,4.72
2023-01-13T07:39:50.051Z,4.67
2023-01-13T07:42:38.148Z,4.63
2023-01-13T07:45:12.376Z,4.57
2023-01-13T07:47:42.768Z,4.53
2023-01-13T07:50:13.547Z,4.45
2023-01-13T07:52:43.720Z,4.25
2023-01-13T07:55:14.312Z,4.17
2023-01-13T07:57:44.512Z,4.17
2023-01-13T08:00:17.569Z,4.20
2023-01-13T08:02:48.108Z,4.28
2023-01-13T08:05:19.316Z,4.38
2023-01-13T08:07:49.535Z,4.46
2023-01-13T08:10:20.145Z,4.53
2023-01-13T08:13:08.569Z,4.65
2023-01-13T08:15:38.811Z,4.82
2023-01-13T08:18:09.894Z,4.95
2023-01-13T08:20:41.917Z,5.10
2023-01-13T08:23:12.517Z,5.24
2023-01-13T08:25:42.966Z,5.39
2023-01-13T08:28:17.151Z,5.51
2023-01-13T08:30:49.114Z,5.55
2023-01-13T08:33:20.096Z,5.62
2023-01-13T08:35:52.917Z,5.67
2023-01-13T08:38:24.711Z,5.76
2023-01-13T08:40:55.433Z,5.82
2023-01-13T08:43:25.834Z,5.91
2023-01-13T08:46:01.221Z,6.02
2023-01-13T08:48:31.868Z,6.12
2023-01-13T08:51:06.101Z,6.23
2023-01-13T08:53:36.556Z,6.36
2023-01-13T08:56:11.807Z,6.46
2023-01-13T08:58:43.539Z,6.57
2023-01-13T09:01:16.139Z,6.70
2023-01-13T09:03:46.515Z,6.82
2023-01-13T09:06:17.082Z,6.88
2023-01-13T09:08:47.965Z,6.92
2023-01-13T09:11:38.266Z,6.93
2023-01-13T09:14:10.219Z,7.02
2023-01-13T09:16:40.370Z,7.10
2023-01-13T09:19:10.848Z,7.18
2023-01-13T09:21:41.515Z,7.13
2023-01-13T09:24:14.659Z,7.14
2023-01-13T09:26:44.974Z,7.22
2023-01-13T09:29:15.634Z,7.32
2023-01-13T09:31:46.124Z,7.36
2023-01-13T09:34:38.961Z,7.45
2023-01-13T09:37:09.790Z,7.64
2023-01-13T09:39:39.388Z,7.82
2023-01-13T09:42:34.154Z,7.92
2023-01-13T09:45:06.873Z,7.95
2023-01-13T09:47:41.574Z,7.97
2023-01-13T09:50:27.476Z,7.93
2023-01-13T09:52:58.105Z,7.87
2023-01-13T09:55:33.075Z,7.80
2023-01-13T09:58:08.871Z,7.73
2023-01-13T10:00:42.029Z,7.69
2023-01-13T10:03:22.043Z,7.65
2023-01-13T10:05:58.755Z,7.67
2023-01-13T10:08:30.876Z,7.67
2023-01-13T10:11:24.239Z,7.69
2023-01-13T10:14:00.426Z,7.76
2023-01-13T10:16:42.046Z,7.88
2023-01-13T10:19:19.480Z,7.99
2023-01-13T10:22:24.365Z,7.94
2023-01-13T10:25:09.243Z,7.95
2023-01-13T10:27:40.606Z,8.00
2023-01-13T10:30:20.777Z,8.06
2023-01-13T10:32:54.689Z,8.11
2023-01-13T10:35:55.827Z,8.08
2023-01-13T10:38:28.398Z,7.84
2023-01-13T10:41:03.568Z,7.58
2023-01-13T10:43:34.035Z,7.48
2023-01-13T10:46:07.687Z,7.39
2023-01-13T10:48:40.632Z,7.24
2023-01-13T10:51:25.517Z,7.22
2023-01-13T10:53:59.204Z,7.28
2023-01-13T10:56:32.634Z,7.37
2023-01-13T10:59:15.997Z,7.45
2023-01-13T11:01:57.647Z,7.49
2023-01-13T11:04:31.476Z,7.53
2023-01-13T11:07:02.714Z,7.40
2023-01-13T11:09:34.019Z,7.35
2023-01-13T11:12:08.488Z,7.22
2023-01-13T11:14:41.367Z,7.14
2023-01-13T11:17:32.142Z,7.09
2023-01-13T11:20:15.957Z,6.81
2023-01-13T11:22:47.959Z,6.50
2023-01-13T11:25:22.519Z,6.31
2023-01-13T11:27:58.711Z,6.12
2023-01-13T11:30:33.109Z,5.96
2023-01-13T11:33:25.405Z,5.86
2023-01-13T11:36:04.325Z,5.79
2023-01-13T11:38:41.764Z,5.83
2023-01-13T11:41:18.943Z,5.90
2023-01-13T11:43:53.839Z,5.90
2023-01-13T11:46:27.409Z,5.91
2023-01-13T11:48:58.656Z,5.92
2023-01-13T11:51:36.250Z,5.89
2023-01-13T11:54:16.709Z,5.78
2023-01-13T11:57:10.689Z,5.62
2023-01-13T12:00:09.227Z,5.55
2023-01-13T12:02:51.190Z,5.40
2023-01-13T12:05:28.846Z,5.26
2023-01-13T12:08:13.249Z,5.19
2023-01-13T12:11:00.240Z,5.13
2023-01-13T12:13:40.994Z,5.12
2023-01-13T12:16:23.453Z,5.05
2023-01-13T12:19:17.117Z,5.00
2023-01-13T12:22:04.289Z,5.01
2023-01-13T12:24:38.047Z,4.97
2023-01-13T12:27:13.615Z,4.92
2023-01-13T12:29:47.775Z,4.85
2023-01-13T12:32:21.131Z,4.77
2023-01-13T12:35:05.426Z,4.65
2023-01-13T12:37:44.556Z,4.56
2023-01-13T12:40:23.277Z,4.48
2023-01-13T12:43:24.741Z,4.40
2023-01-13T12:45:55.149Z,4.36
2023-01-13T12:49:01.040Z,4.38
2023-01-13T12:51:33.047Z,4.31
2023-01-13T12:54:03.870Z,4.15
2023-01-13T12:56:47.039Z,3.98
2023-01-13T12:59:49.460Z,3.87
2023-01-13T13:02:37.338Z,3.76
2023-01-13T13:05:34.867Z,3.69
2023-01-13T13:08:11.455Z,3.69
2023-01-13T13:10:40.931Z,3.70
2023-01-13T13:13:23.489Z,3.67
2023-01-13T13:15:53.813Z,3.68
2023-01-13T13:18:28.047Z,3.69
2023-01-13T13:21:08.741Z,3.71
2023-01-13T13:24:11.173Z,3.68
2023-01-13T13:26:45.995Z,3.64
2023-01-13T13:29:40.806Z,3.58
2023-01-13T13:32:27.604Z,3.51
2023-01-13T13:35:06.857Z,3.47
2023-01-13T13:38:04.295Z,3.50
2023-01-13T13:40:59.840Z,3.52
2023-01-13T13:43:49.182Z,3.49
2023-01-13T13:46:48.333Z,3.51
2023-01-13T13:49:20.111Z,3.57
2023-01-13T13:51:56.161Z,3.62
2023-01-13T13:54:26.399Z,3.66
2023-01-13T13:56:58.433Z,3.70
2023-01-13T13:59:30.355Z,3.75
2023-01-13T14:02:03.366Z,3.82
2023-01-13T14:04:35.900Z,3.90
2023-01-13T14:07:20.357Z,3.97
2023-01-13T14:09:54.103Z,4.02
2023-01-13T14:12:27.037Z,4.05
2023-01-13T14:14:59.733Z,4.09
2023-01-13T14:17:31.513Z,4.11
2023-01-13T14:20:07.739Z,4.12
2023-01-13T14:22:38.165Z,4.15
2023-01-13T14:25:33.411Z,4.20
2023-01-13T14:28:14.807Z,4.27
2023-01-13T14:30:45.425Z,4.32
2023-01-13T14:33:18.574Z,4.35
2023-01-13T14:36:07.707Z,4.37
2023-01-13T14:38:38.145Z,4.42
2023-01-13T14:41:15.683Z,4.44
2023-01-13T14:43:47.185Z,4.49
2023-01-13T14:46:18.993Z,4.53
2023-01-13T14:48:50.029Z,4.55
2023-01-13T14:51:27.609Z,4.58
2023-01-13T14:53:58.923Z,4.60
2023-01-13T14:56:49.682Z,4.63
2023-01-13T14:59:43.855Z,4.67
2023-01-13T15:02:41.676Z,4.68
2023-01-13T15:05:36.454Z,4.69
2023-01-13T15:08:18.003Z,4.70
2023-01-13T15:10:50.134Z,4.69
2023-01-13T15:13:31.805Z,4.67
2023-01-13T15:16:03.715Z,4.64
2023-01-13T15:18:39.652Z,4.62
2023-01-13T15:21:09.883Z,4.63
2023-01-13T15:23:40.883Z,4.67
2023-01-13T15:26:28.502Z,4.70
2023-01-13T15:29:00.561Z,4.68
2023-01-13T15:31:31.103Z,4.62
2023-01-13T15:34:01.366Z,4.57
2023-01-13T15:36:33.159Z,4.56
2023-01-13T15:39:03.857Z,4.58
2023-01-13T15:41:50.631Z,4.60
2023-01-13T15:44:38.912Z,4.58
2023-01-13T15:47:09.972Z,4.61
2023-01-13T15:49:42.078Z,4.64
2023-01-13T15:52:21.106Z,4.65
2023-01-13T15:54:51.789Z,4.67
2023-01-13T15:57:25.207Z,4.70
2023-01-13T15:59:57.823Z,4.72
2023-01-13T16:02:29.672Z,4.71
2023-01-13T16:05:00.271Z,4.70
2023-01-13T16:07:30.758Z,4.72
2023-01-13T16:10:01.565Z,4.73
2023-01-13T16:12:32.864Z,4.76
2023-01-13T16:15:03.130Z,4.80
2023-01-13T16:17:35.422Z,4.83
2023-01-13T16:20:07.399Z,4.83
2023-01-13T16:22:38.073Z,4.83
2023-01-13T16:25:10.320Z,4.81
2023-01-13T16:27:40.561Z,4.77
2023-01-13T16:30:24.052Z,4.74
2023-01-13T16:32:54.814Z,4.67
2023-01-13T16:35:25.940Z,4.63
2023-01-13T16:37:58.078Z,4.59
2023-01-13T16:40:32.130Z,4.56
2023-01-13T16:43:03.553Z,4.58
2023-01-13T16:45:34.368Z,4.59
2023-01-13T16:48:05.272Z,4.60
2023-01-13T16:50:39.290Z,4.59
2023-01-13T16:53:10.254Z,4.53
2023-01-13T16:55:41.010Z,4.52
2023-01-13T16:58:20.011Z,4.54
2023-01-13T17:00:51.913Z,4.58
2023-01-13T17:03:22.743Z,4.62
2023-01-13T17:05:53.233Z,4.66
2023-01-13T17:08:23.960Z,4.68
2023-01-13T17:10:54.593Z,4.59
2023-01-13T17:13:24.932Z,4.55
2023-01-13T17:15:55.845Z,4.57
2023-01-13T17:18:26.775Z,4.59
2023-01-13T17:20:58.962Z,4.61
2023-01-13T17:23:31.192Z,4.65
2023-01-13T17:26:01.314Z,4.69
2023-01-13T17:28:31.633Z,4.71
2023-01-13T17:31:01.948Z,4.72
2023-01-13T17:33:36.905Z,4.73
2023-01-13T17:36:08.189Z,4.75
2023-01-13T17:38:38.352Z,4.66
2023-01-13T17:41:08.857Z,4.55
2023-01-13T17:43:39.040Z,4.46
2023-01-13T17:46:13.081Z,4.42
2023-01-13T17:48:43.415Z,4.44
2023-01-13T17:51:15.133Z,4.48
2023-01-13T17:53:46.380Z,4.48
2023-01-13T17:56:18.508Z,4.51
2023-01-13T17:58:48.901Z,4.56
2023-01-13T18:01:21.216Z,4.61
2023-01-13T18:03:52.044Z,4.64
2023-01-13T18:06:23.825Z,4.68
2023-01-13T18:08:54.426Z,4.72
2023-01-13T18:11:25.047Z,4.73
2023-01-13T18:13:57.094Z,4.74
2023-01-13T18:16:30.226Z,4.70
2023-01-13T18:19:15.614Z,4.63
2023-01-13T18:22:04.388Z,4.59
2023-01-13T18:24:54.097Z,4.60
2023-01-13T18:27:28.938Z,4.58
2023-01-13T18:30:00.956Z,4.61
2023-01-13T18:32:33.302Z,4.64
2023-01-13T18:35:06.979Z,4.67
2023-01-13T18:37:39.814Z,4.69
2023-01-13T18:40:12.495Z,4.70
2023-01-13T18:42:54.137Z,4.72
2023-01-13T18:45:26.167Z,4.67
2023-01-13T18:47:59.147Z,4.65
2023-01-13T18:50:29.480Z,4.65
2023-01-13T18:53:00.171Z,4.65
2023-01-13T18:55:30.759Z,4.66
2023-01-13T18:58:01.707Z,4.64
2023-01-13T19:00:36.193Z,4.63
2023-01-13T19:05:42.664Z,4.35
2023-01-13T19:08:13.040Z,4.20
2023-01-13T19:10:45.679Z,4.14
2023-01-13T19:13:18.219Z,4.15
2023-01-13T19:15:48.592Z,4.17
2023-01-13T19:18:21.852Z,4.22
2023-01-13T19:20:52.064Z,4.29
2023-01-13T19:23:24.071Z,4.34
2023-01-13T19:25:54.421Z,4.35
2023-01-13T19:28:24.683Z,4.39
2023-01-13T19:30:54.845Z,4.44
2023-01-13T19:33:26.320Z,4.51
2023-01-13T19:35:56.465Z,4.51
2023-01-13T19:38:28.190Z,4.50
2023-01-13T19:40:59.784Z,4.48
2023-01-13T19:43:47.665Z,4.48
2023-01-13T19:46:17.856Z,4.53
2023-01-13T19:48:48.371Z,4.55
2023-01-13T19:51:19.224Z,4.56
2023-01-13T19:53:49.927Z,4.57
2023-01-13T19:56:19.724Z,4.57
2023-01-13T19:58:51.327Z,4.55
2023-01-13T20:01:24.542Z,4.53
2023-01-13T20:03:55.398Z,4.53
2023-01-13T20:06:25.857Z,4.57
2023-01-13T20:08:56.066Z,4.60
2023-01-13T20:11:31.843Z,4.64
2023-01-13T20:14:03.559Z,4.67
2023-01-13T20:16:33.929Z,4.73
2023-01-13T20:19:04.183Z,4.74
2023-01-13T20:21:34.375Z,4.76
2023-01-13T20:24:05.139Z,4.74
2023-01-13T20:26:37.104Z,4.76
2023-01-13T20:29:07.589Z,4.78
2023-01-13T20:31:38.433Z,4.80
2023-01-13T20:34:08.927Z,4.74
2023-01-13T20:36:43.017Z,4.68
2023-01-13T20:39:16.046Z,4.65
2023-01-13T20:42:04.303Z,4.59
2023-01-13T20:44:35.003Z,4.58
2023-01-13T20:47:05.947Z,4.59
2023-01-13T20:49:36.955Z,4.63
2023-01-13T20:52:10.391Z,4.67
2023-01-13T20:54:41.676Z,4.70
2023-01-13T20:57:12.247Z,4.73
2023-01-13T20:59:42.616Z,4.75
2023-01-13T21:02:14.510Z,4.77
2023-01-13T21:04:46.610Z,4.81
2023-01-13T21:07:16.916Z,4.82
2023-01-13T21:09:47.443Z,4.82
2023-01-13T21:12:36.063Z,4.83
2023-01-13T21:15:21.645Z,4.84
2023-01-13T21:18:10.650Z,4.85
2023-01-13T21:20:40.827Z,4.87
2023-01-13T21:23:11.206Z,4.85
2023-01-13T21:25:41.545Z,4.84
2023-01-13T21:28:13.224Z,4.79
2023-01-13T21:30:44.394Z,4.78
2023-01-13T21:33:16.757Z,4.76
2023-01-13T21:35:48.576Z,4.76
2023-01-13T21:38:20.266Z,4.75
2023-01-13T21:41:01.338Z,4.73
2023-01-13T21:43:48.569Z,4.70
2023-01-13T21:46:38.030Z,4.71
2023-01-13T21:49:08.982Z,4.70
2023-01-13T21:51:39.180Z,4.72
2023-01-13T21:54:09.322Z,4.73
2023-01-13T21:56:39.710Z,4.72
2023-01-13T21:59:09.909Z,4.70
2023-01-13T22:02:10.487Z,4.65
2023-01-13T22:04:30.615Z,4.61
2023-01-13T22:07:04.370Z,4.61
2023-01-13T22:09:34.724Z,4.61
2023-01-13T22:12:05.958Z,4.62
2023-01-13T22:14:37.266Z,4.63
2023-01-13T22:17:07.552Z,4.65
2023-01-13T22:19:41.943Z,4.66
2023-01-13T22:22:14.139Z,4.65
2023-01-13T22:24:46.239Z,4.62
2023-01-13T22:27:18.675Z,4.61
2023-01-13T22:29:50.031Z,4.58
2023-01-13T22:32:21.334Z,4.58
2023-01-13T22:34:52.137Z,4.59
2023-01-13T22:37:24.645Z,4.59
2023-01-13T22:39:55.859Z,4.59
2023-01-13T22:42:26.047Z,4.58
2023-01-13T22:44:56.164Z,4.57
2023-01-13T22:47:26.465Z,4.56
2023-01-13T22:49:56.918Z,4.57
2023-01-13T22:52:28.328Z,4.59
2023-01-13T22:55:00.441Z,4.61
2023-01-13T22:57:46.609Z,4.63
2023-01-13T23:00:19.404Z,4.61
2023-01-13T23:02:49.829Z,4.61
2023-01-13T23:05:20.575Z,4.59
2023-01-13T23:07:50.829Z,4.56
2023-01-13T23:10:21.502Z,4.54
2023-01-13T23:12:52.963Z,4.52
2023-01-13T23:15:23.465Z,4.50
2023-01-13T23:17:53.986Z,4.48
2023-01-13T23:20:25.016Z,4.46
2023-01-13T23:22:55.506Z,4.46
2023-01-13T23:25:25.681Z,4.47
2023-01-13T23:27:56.067Z,4.45
2023-01-13T23:30:26.599Z,4.44
2023-01-13T23:32:57.226Z,4.39
2023-01-13T23:35:28.379Z,4.34
2023-01-13T23:37:57.326Z,4.29
2023-01-13T23:40:27.725Z,4.24
2023-01-13T23:42:58.279Z,4.17
2023-01-13T23:45:28.644Z,4.10
2023-01-13T23:47:58.702Z,4.05
2023-01-13T23:50:29.007Z,4.05
2023-01-13T23:52:59.502Z,4.05
2023-01-13T23:55:29.713Z,4.06
2023-01-13T23:57:59.783Z,4.03
